sensor_id;sensor_type;location;lat;lon;timestamp;temperature;humidity
38798;SHT11;24546;52.240;16.826;2022-09-14T00:00:17;15.50;99.90
38798;SHT11;24546;52.240;16.826;2022-09-14T00:05:20;15.50;99.90
38798;SHT11;24546;52.240;16.826;2022-09-14T00:10:21;15.40;99.90
38798;SHT11;24546;52.240;16.826;2022-09-14T00:15:23;15.40;99.90
38798;SHT11;24546;52.240;16.826;2022-09-14T00:20:23;15.30;99.90
38798;SHT11;24546;52.240;16.826;2022-09-14T00:25:25;15.30;99.90
38798;SHT11;24546;52.240;16.826;2022-09-14T00:30:28;15.30;99.90
38798;SHT11;24546;52.240;16.826;2022-09-14T00:35:29;15.40;99.90
38798;SHT11;24546;52.240;16.826;2022-09-14T00:40:30;15.40;99.90
38798;SHT11;24546;52.240;16.826;2022-09-14T00:45:31;15.40;99.90
38798;SHT11;24546;52.240;16.826;2022-09-14T00:50:32;15.40;99.90
38798;SHT11;24546;52.240;16.826;2022-09-14T00:55:33;15.50;99.90
38798;SHT11;24546;52.240;16.826;2022-09-14T01:00:34;15.40;99.90
38798;SHT11;24546;52.240;16.826;2022-09-14T01:11:09;15.50;99.90
38798;SHT11;24546;52.240;16.826;2022-09-14T01:21:41;15.50;99.90
38798;SHT11;24546;52.240;16.826;2022-09-14T01:27:13;15.50;99.90
38798;SHT11;24546;52.240;16.826;2022-09-14T01:42:49;15.40;99.90
38798;SHT11;24546;52.240;16.826;2022-09-14T01:47:54;15.40;99.90
38798;SHT11;24546;52.240;16.826;2022-09-14T01:53:08;15.40;99.90
38798;SHT11;24546;52.240;16.826;2022-09-14T02:03:28;15.30;99.90
38798;SHT11;24546;52.240;16.826;2022-09-14T02:08:33;15.30;99.90
38798;SHT11;24546;52.240;16.826;2022-09-14T02:13:35;15.30;99.90
38798;SHT11;24546;52.240;16.826;2022-09-14T02:18:37;15.20;99.90
38798;SHT11;24546;52.240;16.826;2022-09-14T02:23:41;15.20;99.90
38798;SHT11;24546;52.240;16.826;2022-09-14T02:28:42;15.20;99.90
38798;SHT11;24546;52.240;16.826;2022-09-14T02:34:04;15.20;99.90
38798;SHT11;24546;52.240;16.826;2022-09-14T02:44:30;15.20;99.90
38798;SHT11;24546;52.240;16.826;2022-09-14T02:54:51;15.10;99.90
38798;SHT11;24546;52.240;16.826;2022-09-14T02:59:54;15.10;99.90
38798;SHT11;24546;52.240;16.826;2022-09-14T03:04:55;15.00;99.90
38798;SHT11;24546;52.240;16.826;2022-09-14T03:09:56;14.90;99.90
38798;SHT11;24546;52.240;16.826;2022-09-14T03:14:57;14.90;99.90
38798;SHT11;24546;52.240;16.826;2022-09-14T03:19:58;14.80;99.90
38798;SHT11;24546;52.240;16.826;2022-09-14T03:24:59;14.80;99.90
38798;SHT11;24546;52.240;16.826;2022-09-14T03:30:02;14.70;99.90
38798;SHT11;24546;52.240;16.826;2022-09-14T03:35:04;14.90;99.90
38798;SHT11;24546;52.240;16.826;2022-09-14T03:40:06;14.70;99.90
38798;SHT11;24546;52.240;16.826;2022-09-14T03:45:08;14.70;99.90
38798;SHT11;24546;52.240;16.826;2022-09-14T03:50:13;14.60;99.90
38798;SHT11;24546;52.240;16.826;2022-09-14T03:55:14;14.50;99.90
38798;SHT11;24546;52.240;16.826;2022-09-14T04:00:15;14.50;99.90
38798;SHT11;24546;52.240;16.826;2022-09-14T04:05:17;14.50;99.90
38798;SHT11;24546;52.240;16.826;2022-09-14T04:10:18;14.40;99.90
38798;SHT11;24546;52.240;16.826;2022-09-14T04:15:19;14.40;99.90
38798;SHT11;24546;52.240;16.826;2022-09-14T04:20:20;14.50;99.90
38798;SHT11;24546;52.240;16.826;2022-09-14T04:25:21;14.30;99.90
38798;SHT11;24546;52.240;16.826;2022-09-14T04:30:23;14.40;99.90
38798;SHT11;24546;52.240;16.826;2022-09-14T04:35:24;14.30;99.90
38798;SHT11;24546;52.240;16.826;2022-09-14T04:40:25;14.30;99.90
38798;SHT11;24546;52.240;16.826;2022-09-14T04:45:29;14.30;99.90
38798;SHT11;24546;52.240;16.826;2022-09-14T04:50:31;14.20;99.90
38798;SHT11;24546;52.240;16.826;2022-09-14T04:55:37;14.20;99.90
38798;SHT11;24546;52.240;16.826;2022-09-14T05:00:38;14.20;99.90
38798;SHT11;24546;52.240;16.826;2022-09-14T05:05:39;14.10;99.90
38798;SHT11;24546;52.240;16.826;2022-09-14T05:10:40;14.50;99.90
38798;SHT11;24546;52.240;16.826;2022-09-14T05:15:41;14.30;99.90
38798;SHT11;24546;52.240;16.826;2022-09-14T05:20:42;14.50;99.90
38798;SHT11;24546;52.240;16.826;2022-09-14T05:25:43;14.50;99.90
38798;SHT11;24546;52.240;16.826;2022-09-14T05:30:44;14.60;99.90
38798;SHT11;24546;52.240;16.826;2022-09-14T05:35:46;14.60;99.90
38798;SHT11;24546;52.240;16.826;2022-09-14T05:40:46;14.80;99.90
38798;SHT11;24546;52.240;16.826;2022-09-14T05:45:48;15.00;99.90
38798;SHT11;24546;52.240;16.826;2022-09-14T05:50:57;15.20;99.90
38798;SHT11;24546;52.240;16.826;2022-09-14T05:56:07;15.50;99.90
38798;SHT11;24546;52.240;16.826;2022-09-14T06:01:23;15.80;99.90
38798;SHT11;24546;52.240;16.826;2022-09-14T06:06:24;16.00;99.90
38798;SHT11;24546;52.240;16.826;2022-09-14T06:11:32;16.10;99.90
38798;SHT11;24546;52.240;16.826;2022-09-14T06:16:35;16.30;99.90
38798;SHT11;24546;52.240;16.826;2022-09-14T06:21:44;16.30;99.90
38798;SHT11;24546;52.240;16.826;2022-09-14T06:26:47;16.50;99.90
38798;SHT11;24546;52.240;16.826;2022-09-14T06:31:48;16.80;99.90
38798;SHT11;24546;52.240;16.826;2022-09-14T06:36:51;16.90;99.90
38798;SHT11;24546;52.240;16.826;2022-09-14T06:41:52;17.10;99.90
38798;SHT11;24546;52.240;16.826;2022-09-14T06:46:53;17.20;99.90
38798;SHT11;24546;52.240;16.826;2022-09-14T06:51:54;17.30;99.90
38798;SHT11;24546;52.240;16.826;2022-09-14T06:56:57;17.60;99.90
38798;SHT11;24546;52.240;16.826;2022-09-14T07:01:58;17.60;99.90
38798;SHT11;24546;52.240;16.826;2022-09-14T07:06:59;17.70;99.90
38798;SHT11;24546;52.240;16.826;2022-09-14T07:12:02;17.50;99.90
38798;SHT11;24546;52.240;16.826;2022-09-14T07:17:04;17.40;99.90
38798;SHT11;24546;52.240;16.826;2022-09-14T07:22:05;17.50;99.90
38798;SHT11;24546;52.240;16.826;2022-09-14T07:27:06;18.10;99.90
38798;SHT11;24546;52.240;16.826;2022-09-14T07:32:06;18.10;99.90
38798;SHT11;24546;52.240;16.826;2022-09-14T07:37:07;18.30;99.90
38798;SHT11;24546;52.240;16.826;2022-09-14T07:42:08;18.40;99.90
38798;SHT11;24546;52.240;16.826;2022-09-14T07:47:09;18.50;99.90
38798;SHT11;24546;52.240;16.826;2022-09-14T07:52:10;18.60;99.90
38798;SHT11;24546;52.240;16.826;2022-09-14T07:57:11;18.90;99.90
38798;SHT11;24546;52.240;16.826;2022-09-14T08:02:12;19.30;99.90
38798;SHT11;24546;52.240;16.826;2022-09-14T08:07:13;19.30;99.90
38798;SHT11;24546;52.240;16.826;2022-09-14T08:12:14;19.60;99.90
38798;SHT11;24546;52.240;16.826;2022-09-14T08:17:18;19.90;99.90
38798;SHT11;24546;52.240;16.826;2022-09-14T08:22:21;19.90;99.90
38798;SHT11;24546;52.240;16.826;2022-09-14T08:27:22;20.20;99.90
38798;SHT11;24546;52.240;16.826;2022-09-14T08:32:24;20.60;99.90
38798;SHT11;24546;52.240;16.826;2022-09-14T08:37:24;20.90;99.90
38798;SHT11;24546;52.240;16.826;2022-09-14T08:42:25;20.90;99.90
38798;SHT11;24546;52.240;16.826;2022-09-14T08:47:28;21.00;99.90
38798;SHT11;24546;52.240;16.826;2022-09-14T08:52:45;21.50;99.90
38798;SHT11;24546;52.240;16.826;2022-09-14T08:57:55;21.70;99.90
38798;SHT11;24546;52.240;16.826;2022-09-14T09:03:36;21.90;99.70
38798;SHT11;24546;52.240;16.826;2022-09-14T09:13:53;22.30;98.30
38798;SHT11;24546;52.240;16.826;2022-09-14T09:19:02;22.70;98.10
38798;SHT11;24546;52.240;16.826;2022-09-14T09:24:44;22.80;98.00
38798;SHT11;24546;52.240;16.826;2022-09-14T09:29:46;22.60;97.60
38798;SHT11;24546;52.240;16.826;2022-09-14T09:34:47;22.90;98.20
38798;SHT11;24546;52.240;16.826;2022-09-14T09:40:16;22.70;97.40
38798;SHT11;24546;52.240;16.826;2022-09-14T09:45:20;22.60;98.10
38798;SHT11;24546;52.240;16.826;2022-09-14T09:50:21;22.60;98.00
38798;SHT11;24546;52.240;16.826;2022-09-14T09:55:36;22.60;98.20
38798;SHT11;24546;52.240;16.826;2022-09-14T10:00:38;23.00;96.90
38798;SHT11;24546;52.240;16.826;2022-09-14T10:05:39;23.10;96.10
38798;SHT11;24546;52.240;16.826;2022-09-14T10:10:41;22.90;96.20
38798;SHT11;24546;52.240;16.826;2022-09-14T10:15:42;23.10;96.00
38798;SHT11;24546;52.240;16.826;2022-09-14T10:36:27;24.20;95.50
38798;SHT11;24546;52.240;16.826;2022-09-14T10:41:53;24.00;93.60
38798;SHT11;24546;52.240;16.826;2022-09-14T10:47:30;23.60;95.40
38798;SHT11;24546;52.240;16.826;2022-09-14T10:52:48;23.20;95.50
38798;SHT11;24546;52.240;16.826;2022-09-14T10:58:20;23.20;95.80
38798;SHT11;24546;52.240;16.826;2022-09-14T11:03:34;22.80;95.60
38798;SHT11;24546;52.240;16.826;2022-09-14T11:08:45;23.10;96.10
38798;SHT11;24546;52.240;16.826;2022-09-14T11:24:56;23.60;94.90
38798;SHT11;24546;52.240;16.826;2022-09-14T11:30:19;23.90;96.00
38798;SHT11;24546;52.240;16.826;2022-09-14T11:35:23;24.00;95.20
38798;SHT11;24546;52.240;16.826;2022-09-14T11:40:29;24.60;95.50
38798;SHT11;24546;52.240;16.826;2022-09-14T11:51:17;24.20;94.50
38798;SHT11;24546;52.240;16.826;2022-09-14T11:56:30;24.30;95.30
38798;SHT11;24546;52.240;16.826;2022-09-14T12:01:36;24.20;94.00
38798;SHT11;24546;52.240;16.826;2022-09-14T12:11:39;24.40;94.70
38798;SHT11;24546;52.240;16.826;2022-09-14T12:17:04;24.30;94.60
38798;SHT11;24546;52.240;16.826;2022-09-14T12:27:30;24.20;95.50
38798;SHT11;24546;52.240;16.826;2022-09-14T12:32:41;24.10;95.50
38798;SHT11;24546;52.240;16.826;2022-09-14T12:37:42;24.10;95.40
38798;SHT11;24546;52.240;16.826;2022-09-14T12:42:43;23.70;94.20
38798;SHT11;24546;52.240;16.826;2022-09-14T12:47:51;23.70;93.90
38798;SHT11;24546;52.240;16.826;2022-09-14T12:53:22;23.90;95.10
38798;SHT11;24546;52.240;16.826;2022-09-14T13:03:41;23.60;94.00
38798;SHT11;24546;52.240;16.826;2022-09-14T13:08:48;23.40;95.00
38798;SHT11;24546;52.240;16.826;2022-09-14T13:13:50;23.70;95.40
38798;SHT11;24546;52.240;16.826;2022-09-14T13:18:59;23.90;95.90
38798;SHT11;24546;52.240;16.826;2022-09-14T13:24:01;23.80;95.50
38798;SHT11;24546;52.240;16.826;2022-09-14T13:29:06;23.60;95.40
38798;SHT11;24546;52.240;16.826;2022-09-14T13:34:17;23.60;95.60
38798;SHT11;24546;52.240;16.826;2022-09-14T13:39:33;23.70;95.30
38798;SHT11;24546;52.240;16.826;2022-09-14T13:44:39;23.70;95.70
38798;SHT11;24546;52.240;16.826;2022-09-14T13:49:46;23.60;95.70
38798;SHT11;24546;52.240;16.826;2022-09-14T13:54:49;23.50;96.40
38798;SHT11;24546;52.240;16.826;2022-09-14T14:00:21;23.00;95.10
38798;SHT11;24546;52.240;16.826;2022-09-14T14:10:46;23.20;95.60
38798;SHT11;24546;52.240;16.826;2022-09-14T14:15:48;23.20;95.60
38798;SHT11;24546;52.240;16.826;2022-09-14T14:20:49;23.00;96.40
38798;SHT11;24546;52.240;16.826;2022-09-14T14:25:53;23.00;95.90
38798;SHT11;24546;52.240;16.826;2022-09-14T14:31:05;23.00;97.00
38798;SHT11;24546;52.240;16.826;2022-09-14T14:36:13;23.00;96.40
38798;SHT11;24546;52.240;16.826;2022-09-14T14:41:17;22.80;96.30
38798;SHT11;24546;52.240;16.826;2022-09-14T14:46:18;22.60;97.00
38798;SHT11;24546;52.240;16.826;2022-09-14T14:51:19;22.50;96.80
38798;SHT11;24546;52.240;16.826;2022-09-14T14:56:23;22.30;97.30
38798;SHT11;24546;52.240;16.826;2022-09-14T15:01:24;22.30;97.00
38798;SHT11;24546;52.240;16.826;2022-09-14T15:06:26;22.30;97.10
38798;SHT11;24546;52.240;16.826;2022-09-14T15:11:27;22.30;97.40
38798;SHT11;24546;52.240;16.826;2022-09-14T15:16:28;22.10;97.30
38798;SHT11;24546;52.240;16.826;2022-09-14T15:21:28;22.10;98.10
38798;SHT11;24546;52.240;16.826;2022-09-14T15:26:30;22.10;98.50
38798;SHT11;24546;52.240;16.826;2022-09-14T15:31:31;22.10;98.10
38798;SHT11;24546;52.240;16.826;2022-09-14T15:36:46;22.00;98.70
38798;SHT11;24546;52.240;16.826;2022-09-14T15:41:50;21.90;97.70
38798;SHT11;24546;52.240;16.826;2022-09-14T15:46:52;21.90;98.10
38798;SHT11;24546;52.240;16.826;2022-09-14T15:51:55;21.80;99.20
38798;SHT11;24546;52.240;16.826;2022-09-14T15:56:57;21.70;98.70
38798;SHT11;24546;52.240;16.826;2022-09-14T16:02:01;21.50;98.30
38798;SHT11;24546;52.240;16.826;2022-09-14T16:07:03;21.50;98.70
38798;SHT11;24546;52.240;16.826;2022-09-14T16:12:06;21.40;99.00
38798;SHT11;24546;52.240;16.826;2022-09-14T16:17:08;21.30;99.60
38798;SHT11;24546;52.240;16.826;2022-09-14T16:22:10;21.40;99.60
38798;SHT11;24546;52.240;16.826;2022-09-14T16:27:11;21.10;98.80
38798;SHT11;24546;52.240;16.826;2022-09-14T16:32:12;21.00;99.30
38798;SHT11;24546;52.240;16.826;2022-09-14T16:37:14;20.90;99.40
38798;SHT11;24546;52.240;16.826;2022-09-14T16:42:15;20.70;99.40
38798;SHT11;24546;52.240;16.826;2022-09-14T16:47:16;20.60;99.90
38798;SHT11;24546;52.240;16.826;2022-09-14T16:52:17;20.50;99.90
38798;SHT11;24546;52.240;16.826;2022-09-14T16:57:20;20.40;99.90
38798;SHT11;24546;52.240;16.826;2022-09-14T17:02:21;20.20;99.90
38798;SHT11;24546;52.240;16.826;2022-09-14T17:07:22;20.10;99.90
38798;SHT11;24546;52.240;16.826;2022-09-14T17:12:23;20.00;99.90
38798;SHT11;24546;52.240;16.826;2022-09-14T17:17:24;19.90;99.90
38798;SHT11;24546;52.240;16.826;2022-09-14T17:22:25;19.80;99.90
38798;SHT11;24546;52.240;16.826;2022-09-14T17:27:26;19.70;99.90
38798;SHT11;24546;52.240;16.826;2022-09-14T17:32:27;19.50;99.90
38798;SHT11;24546;52.240;16.826;2022-09-14T17:37:28;19.40;99.90
38798;SHT11;24546;52.240;16.826;2022-09-14T17:42:29;19.20;99.90
38798;SHT11;24546;52.240;16.826;2022-09-14T17:47:30;19.30;99.90
38798;SHT11;24546;52.240;16.826;2022-09-14T17:52:33;19.20;99.90
38798;SHT11;24546;52.240;16.826;2022-09-14T17:57:34;19.20;99.90
38798;SHT11;24546;52.240;16.826;2022-09-14T18:02:35;19.10;99.90
38798;SHT11;24546;52.240;16.826;2022-09-14T18:07:36;18.90;99.90
38798;SHT11;24546;52.240;16.826;2022-09-14T18:12:37;18.90;99.90
38798;SHT11;24546;52.240;16.826;2022-09-14T18:17:43;18.90;99.90
38798;SHT11;24546;52.240;16.826;2022-09-14T18:22:45;19.00;99.90
38798;SHT11;24546;52.240;16.826;2022-09-14T18:27:45;18.80;99.90
38798;SHT11;24546;52.240;16.826;2022-09-14T18:32:46;18.80;99.90
38798;SHT11;24546;52.240;16.826;2022-09-14T18:37:47;18.80;99.90
38798;SHT11;24546;52.240;16.826;2022-09-14T18:42:48;18.70;99.90
38798;SHT11;24546;52.240;16.826;2022-09-14T18:47:49;18.60;99.90
38798;SHT11;24546;52.240;16.826;2022-09-14T18:52:50;18.50;99.90
38798;SHT11;24546;52.240;16.826;2022-09-14T18:57:52;18.50;99.90
38798;SHT11;24546;52.240;16.826;2022-09-14T19:02:56;18.50;99.90
38798;SHT11;24546;52.240;16.826;2022-09-14T19:07:57;18.40;99.90
38798;SHT11;24546;52.240;16.826;2022-09-14T19:12:58;18.30;99.90
38798;SHT11;24546;52.240;16.826;2022-09-14T19:18:01;18.30;99.90
38798;SHT11;24546;52.240;16.826;2022-09-14T19:23:02;18.20;99.90
38798;SHT11;24546;52.240;16.826;2022-09-14T19:28:03;18.20;99.90
38798;SHT11;24546;52.240;16.826;2022-09-14T19:33:07;18.10;99.90
38798;SHT11;24546;52.240;16.826;2022-09-14T19:38:08;18.10;99.90
38798;SHT11;24546;52.240;16.826;2022-09-14T19:43:08;18.00;99.90
38798;SHT11;24546;52.240;16.826;2022-09-14T19:48:09;18.00;99.90
38798;SHT11;24546;52.240;16.826;2022-09-14T19:53:11;17.90;99.90
38798;SHT11;24546;52.240;16.826;2022-09-14T19:58:12;17.90;99.90
38798;SHT11;24546;52.240;16.826;2022-09-14T20:03:12;17.90;99.90
38798;SHT11;24546;52.240;16.826;2022-09-14T20:08:13;17.90;99.90
38798;SHT11;24546;52.240;16.826;2022-09-14T20:13:14;17.80;99.90
38798;SHT11;24546;52.240;16.826;2022-09-14T20:18:15;17.80;99.90
38798;SHT11;24546;52.240;16.826;2022-09-14T20:23:18;17.90;99.90
38798;SHT11;24546;52.240;16.826;2022-09-14T20:28:24;17.70;99.90
38798;SHT11;24546;52.240;16.826;2022-09-14T20:33:25;17.90;99.90
38798;SHT11;24546;52.240;16.826;2022-09-14T20:38:27;17.70;99.90
38798;SHT11;24546;52.240;16.826;2022-09-14T20:43:33;17.60;99.90
38798;SHT11;24546;52.240;16.826;2022-09-14T20:48:35;17.60;99.90
38798;SHT11;24546;52.240;16.826;2022-09-14T20:53:39;17.50;99.90
38798;SHT11;24546;52.240;16.826;2022-09-14T20:58:40;17.50;99.90
38798;SHT11;24546;52.240;16.826;2022-09-14T21:03:42;17.50;99.90
38798;SHT11;24546;52.240;16.826;2022-09-14T21:08:44;17.50;99.90
38798;SHT11;24546;52.240;16.826;2022-09-14T21:13:45;17.50;99.90
38798;SHT11;24546;52.240;16.826;2022-09-14T21:18:51;17.40;99.90
38798;SHT11;24546;52.240;16.826;2022-09-14T21:23:54;17.40;99.90
38798;SHT11;24546;52.240;16.826;2022-09-14T21:28:56;17.40;99.90
38798;SHT11;24546;52.240;16.826;2022-09-14T21:33:59;17.40;99.90
38798;SHT11;24546;52.240;16.826;2022-09-14T21:39:05;17.40;99.90
38798;SHT11;24546;52.240;16.826;2022-09-14T21:44:07;17.40;99.90
38798;SHT11;24546;52.240;16.826;2022-09-14T21:49:18;17.40;99.90
38798;SHT11;24546;52.240;16.826;2022-09-14T21:54:21;17.30;99.90
38798;SHT11;24546;52.240;16.826;2022-09-14T21:59:22;17.50;99.90
38798;SHT11;24546;52.240;16.826;2022-09-14T22:04:24;17.30;99.90
38798;SHT11;24546;52.240;16.826;2022-09-14T22:09:26;17.40;99.90
38798;SHT11;24546;52.240;16.826;2022-09-14T22:14:28;17.20;99.90
38798;SHT11;24546;52.240;16.826;2022-09-14T22:19:30;17.20;99.90
38798;SHT11;24546;52.240;16.826;2022-09-14T22:24:34;17.20;99.90
38798;SHT11;24546;52.240;16.826;2022-09-14T22:29:39;17.10;99.90
38798;SHT11;24546;52.240;16.826;2022-09-14T22:34:40;17.20;99.90
38798;SHT11;24546;52.240;16.826;2022-09-14T22:39:41;17.20;99.90
38798;SHT11;24546;52.240;16.826;2022-09-14T22:44:44;17.10;99.90
38798;SHT11;24546;52.240;16.826;2022-09-14T22:49:45;17.10;99.90
38798;SHT11;24546;52.240;16.826;2022-09-14T22:54:46;17.10;99.90
38798;SHT11;24546;52.240;16.826;2022-09-14T22:59:47;17.10;99.90
38798;SHT11;24546;52.240;16.826;2022-09-14T23:04:48;17.10;99.90
38798;SHT11;24546;52.240;16.826;2022-09-14T23:09:49;17.10;99.90
38798;SHT11;24546;52.240;16.826;2022-09-14T23:14:50;17.10;99.90
38798;SHT11;24546;52.240;16.826;2022-09-14T23:19:51;17.10;99.90
38798;SHT11;24546;52.240;16.826;2022-09-14T23:24:52;17.00;99.90
38798;SHT11;24546;52.240;16.826;2022-09-14T23:29:53;17.10;99.90
38798;SHT11;24546;52.240;16.826;2022-09-14T23:34:54;17.00;99.90
38798;SHT11;24546;52.240;16.826;2022-09-14T23:39:57;16.90;99.90
38798;SHT11;24546;52.240;16.826;2022-09-14T23:44:58;16.80;99.90
38798;SHT11;24546;52.240;16.826;2022-09-14T23:49:59;16.80;99.90
38798;SHT11;24546;52.240;16.826;2022-09-14T23:55:00;16.80;99.90
